Time;durP1;ratioP1;P1;durP2;ratioP2;P2;SDS_P1;SDS_P2;PMS_P1;PMS_P2;Temp;Humidity;BMP_temperature;BMP_pressure;BME280_temperature;BME280_humidity;BME280_pressure;Samples;Min_cycle;Max_cycle;Signal;HPM_P1;HPM_P2
2021/12/29 00:00:45;;;;;;;27.02;7.95;;;6.90;99.90;;;;;;4861599;29;20049;-94
2021/12/29 00:03:11;;;;;;;28.63;8.52;;;6.90;99.90;;;;;;4858387;29;20045;-95
2021/12/29 00:05:37;;;;;;;27.05;7.80;;;6.90;99.90;;;;;;4850654;29;20056;-95
2021/12/29 00:08:03;;;;;;;31.77;8.05;;;6.90;99.90;;;;;;4859860;29;20492;-95
2021/12/29 00:10:29;;;;;;;30.30;7.90;;;6.90;99.90;;;;;;4847202;29;20404;-96
2021/12/29 00:12:55;;;;;;;26.65;7.38;;;6.90;99.90;;;;;;4876186;29;20045;-95
2021/12/29 00:15:27;;;;;;;20.17;7.40;;;6.80;99.90;;;;;;4876177;29;20171;-95
2021/12/29 00:17:54;;;;;;;27.13;7.45;;;6.90;99.90;;;;;;4861196;29;20081;-95
2021/12/29 00:20:24;;;;;;;27.35;7.50;;;6.90;99.90;;;;;;4845328;29;20045;-96
2021/12/29 00:22:50;;;;;;;25.98;7.47;;;6.80;99.90;;;;;;4844598;29;20041;-95
2021/12/29 00:25:16;;;;;;;29.20;7.60;;;6.80;99.90;;;;;;4848648;29;20419;-94
2021/12/29 00:27:42;;;;;;;23.60;7.38;;;6.80;99.90;;;;;;4863840;29;20045;-95
2021/12/29 00:30:10;;;;;;;24.23;7.05;;;6.80;99.90;;;;;;4861176;29;20049;-95
2021/12/29 00:32:36;;;;;;;25.48;7.03;;;6.80;99.90;;;;;;4853094;29;20061;-95
2021/12/29 00:35:04;;;;;;;30.50;7.53;;;6.80;99.90;;;;;;4860503;29;20041;-96
2021/12/29 00:37:29;;;;;;;26.98;7.57;;;6.90;99.90;;;;;;4845519;29;20457;-96
2021/12/29 00:39:55;;;;;;;26.73;7.68;;;6.90;99.90;;;;;;4845492;29;20069;-95
2021/12/29 00:42:21;;;;;;;26.00;7.82;;;6.90;99.90;;;;;;4845454;29;20041;-96
2021/12/29 00:44:46;;;;;;;31.02;7.97;;;6.90;99.90;;;;;;4845335;29;20040;-96
2021/12/29 00:47:13;;;;;;;26.58;7.28;;;6.90;99.90;;;;;;4845244;29;20097;-96
2021/12/29 00:49:39;;;;;;;34.75;8.60;;;6.90;99.90;;;;;;4845175;29;20052;-96
2021/12/29 00:52:07;;;;;;;41.58;8.70;;;6.90;99.90;;;;;;4844014;29;20480;-95
2021/12/29 00:54:35;;;;;;;40.42;8.77;;;6.90;99.90;;;;;;4860162;29;20057;-95
2021/12/29 00:57:01;;;;;;;37.15;9.23;;;6.90;99.90;;;;;;4860258;29;20063;-95
2021/12/29 00:59:26;;;;;;;44.33;10.18;;;6.90;99.90;;;;;;4860714;29;20045;-96
2021/12/29 01:01:53;;;;;;;47.25;9.93;;;6.90;99.90;;;;;;4859402;29;20054;-95
2021/12/29 01:04:20;;;;;;;49.78;11.30;;;6.90;99.90;;;;;;4865660;29;20049;-96
2021/12/29 01:06:46;;;;;;;48.00;10.95;;;6.90;99.90;;;;;;4860859;29;20101;-94
2021/12/29 01:09:12;;;;;;;63.75;11.60;;;7.00;99.90;;;;;;4835711;29;20042;-96
2021/12/29 01:11:38;;;;;;;56.40;12.25;;;7.00;99.90;;;;;;4870355;29;20065;-95
2021/12/29 01:14:05;;;;;;;73.55;12.88;;;6.90;99.90;;;;;;4844320;29;20045;-95
2021/12/29 01:19:02;;;;;;;71.25;12.73;;;7.00;99.90;;;;;;4859889;29;20059;-95
2021/12/29 01:21:28;;;;;;;94.78;14.10;;;7.00;99.90;;;;;;4851185;29;20054;-95
2021/12/29 01:23:54;;;;;;;88.55;13.63;;;7.00;99.90;;;;;;4844886;29;20097;-92
2021/12/29 01:26:19;;;;;;;72.03;13.35;;;7.00;99.90;;;;;;4859636;29;20045;-95
2021/12/29 01:28:45;;;;;;;90.10;13.23;;;7.00;99.90;;;;;;4844520;29;20044;-95
2021/12/29 01:31:11;;;;;;;94.00;13.65;;;7.00;99.90;;;;;;4859929;29;20037;-95
2021/12/29 01:33:36;;;;;;;91.95;14.73;;;7.00;99.90;;;;;;4859825;29;20465;-95
2021/12/29 01:36:02;;;;;;;119.45;15.77;;;7.00;99.90;;;;;;4859159;29;20052;-94
2021/12/29 01:38:27;;;;;;;80.80;13.98;;;7.00;99.90;;;;;;4850891;29;20045;-95
2021/12/29 01:40:53;;;;;;;90.88;13.32;;;7.00;99.90;;;;;;4852425;29;20052;-94
2021/12/29 01:43:19;;;;;;;88.13;13.88;;;7.10;99.90;;;;;;4844569;29;20045;-94
2021/12/29 01:45:46;;;;;;;121.30;16.85;;;7.10;99.90;;;;;;4844339;29;20132;-95
2021/12/29 01:48:12;;;;;;;91.45;13.70;;;7.10;99.90;;;;;;4844465;29;20131;-95
2021/12/29 01:50:40;;;;;;;101.78;14.50;;;7.10;99.90;;;;;;4859844;29;20052;-94
2021/12/29 01:53:12;;;;;;;128.48;15.98;;;7.10;99.90;;;;;;4859904;29;20083;-94
2021/12/29 01:55:39;;;;;;;97.82;13.75;;;7.10;99.90;;;;;;4859473;29;20057;-94
2021/12/29 01:58:06;;;;;;;129.95;14.68;;;7.10;99.90;;;;;;4858932;29;20056;-95
2021/12/29 02:00:34;;;;;;;80.63;13.02;;;7.20;99.90;;;;;;4846688;29;20065;-95
2021/12/29 02:02:59;;;;;;;84.45;12.82;;;7.20;99.90;;;;;;4861067;29;20045;-94
2021/12/29 02:05:25;;;;;;;77.47;12.30;;;7.20;99.90;;;;;;4843543;29;20104;-95
2021/12/29 02:07:50;;;;;;;67.63;11.95;;;7.20;99.90;;;;;;4843867;29;20743;-95
2021/12/29 02:10:18;;;;;;;80.68;12.23;;;7.30;99.90;;;;;;4843875;29;20072;-95
2021/12/29 02:12:44;;;;;;;101.25;13.35;;;7.30;99.90;;;;;;4859061;29;20057;-96
2021/12/29 02:15:11;;;;;;;68.05;11.43;;;7.20;99.90;;;;;;4859703;29;20045;-96
2021/12/29 02:17:37;;;;;;;66.22;11.07;;;7.30;99.90;;;;;;4859360;29;20049;-95
2021/12/29 02:20:05;;;;;;;88.40;11.73;;;7.30;99.90;;;;;;4858569;29;20037;-95
2021/12/29 02:25:21;;;;;;;77.20;11.32;;;7.20;99.90;;;;;;4859301;29;20053;-95
2021/12/29 02:27:50;;;;;;;112.47;13.63;;;7.30;99.90;;;;;;4853052;29;20056;-94
2021/12/29 02:30:17;;;;;;;126.35;13.48;;;7.20;99.90;;;;;;4843794;29;20044;-94
2021/12/29 02:32:44;;;;;;;82.85;11.90;;;7.20;99.90;;;;;;4851472;29;20461;-95
2021/12/29 02:35:11;;;;;;;92.28;13.88;;;7.20;99.90;;;;;;4859490;29;20522;-94
2021/12/29 02:37:38;;;;;;;93.95;13.45;;;7.20;99.90;;;;;;4850983;29;20136;-95
2021/12/29 02:40:05;;;;;;;70.57;12.10;;;7.20;99.90;;;;;;4843405;29;20041;-95
2021/12/29 02:42:38;;;;;;;65.53;12.57;;;7.30;99.90;;;;;;4859166;29;20389;-95
2021/12/29 02:45:06;;;;;;;60.97;11.65;;;7.30;99.90;;;;;;4843372;29;20060;-95
2021/12/29 02:47:31;;;;;;;70.35;12.80;;;7.30;99.90;;;;;;4843039;29;20052;-95
2021/12/29 02:49:57;;;;;;;74.38;11.18;;;7.30;99.90;;;;;;4859243;29;20440;-95
2021/12/29 02:52:24;;;;;;;58.97;12.45;;;7.30;99.90;;;;;;4859104;29;20049;-95
2021/12/29 02:54:51;;;;;;;69.70;12.00;;;7.20;99.90;;;;;;4843054;29;20101;-94
2021/12/29 02:57:17;;;;;;;59.50;12.27;;;7.20;99.90;;;;;;4858790;29;20092;-94
2021/12/29 02:59:42;;;;;;;59.78;12.85;;;7.20;99.90;;;;;;4842953;29;20073;-95
2021/12/29 03:02:08;;;;;;;67.70;13.90;;;7.30;99.90;;;;;;4858617;29;20083;-94
2021/12/29 03:04:34;;;;;;;66.50;14.43;;;7.30;99.90;;;;;;4858732;29;20409;-94
2021/12/29 03:06:59;;;;;;;73.10;14.40;;;7.30;99.90;;;;;;4858535;29;20057;-94
2021/12/29 03:09:25;;;;;;;66.53;15.73;;;7.30;99.90;;;;;;4843050;29;20416;-94
2021/12/29 03:11:51;;;;;;;74.65;14.52;;;7.30;99.90;;;;;;4873533;29;20045;-94
2021/12/29 03:14:17;;;;;;;83.43;16.90;;;7.30;99.90;;;;;;4843331;29;20076;-94
2021/12/29 03:16:43;;;;;;;91.68;16.20;;;7.40;99.90;;;;;;4873595;29;20085;-94
2021/12/29 03:19:09;;;;;;;83.20;17.17;;;7.40;99.90;;;;;;4858373;29;20539;-95
2021/12/29 03:21:35;;;;;;;76.25;16.33;;;7.40;99.90;;;;;;4843031;29;20045;-93
2021/12/29 03:24:03;;;;;;;62.35;15.55;;;7.40;99.90;;;;;;4842520;29;20041;-95
2021/12/29 03:26:28;;;;;;;94.05;17.45;;;7.40;99.90;;;;;;4841848;29;20067;-95
2021/12/29 03:28:57;;;;;;;79.15;16.73;;;7.40;99.90;;;;;;4858268;29;20651;-95
2021/12/29 03:31:23;;;;;;;74.65;16.42;;;7.40;99.90;;;;;;4843529;29;20041;-94
2021/12/29 03:33:49;;;;;;;78.78;16.45;;;7.50;99.90;;;;;;4844478;29;20045;-94
2021/12/29 03:36:16;;;;;;;84.53;18.48;;;7.50;99.90;;;;;;4865320;29;20041;-95
2021/12/29 03:38:43;;;;;;;78.20;18.45;;;7.50;99.90;;;;;;4862017;29;20055;-94
2021/12/29 03:41:14;;;;;;;75.32;16.90;;;7.50;99.90;;;;;;4861970;29;20069;-94
2021/12/29 03:43:42;;;;;;;86.22;18.92;;;7.40;99.90;;;;;;4861635;29;20055;-95
2021/12/29 03:46:08;;;;;;;75.97;17.83;;;7.50;99.90;;;;;;4861871;29;20483;-93
2021/12/29 03:48:35;;;;;;;84.95;19.05;;;7.50;99.90;;;;;;4845994;29;20044;-94
2021/12/29 03:51:03;;;;;;;86.90;17.80;;;7.50;99.90;;;;;;4838783;29;20052;-95
2021/12/29 03:53:29;;;;;;;78.13;19.33;;;7.50;99.90;;;;;;4846228;29;20052;-94
2021/12/29 03:55:55;;;;;;;72.80;18.35;;;7.50;99.90;;;;;;4851415;29;20057;-95
2021/12/29 03:58:22;;;;;;;81.78;18.08;;;7.50;99.90;;;;;;4848123;29;20088;-95
2021/12/29 04:00:51;;;;;;;75.18;18.70;;;7.50;99.90;;;;;;4845317;29;20068;-95
2021/12/29 04:03:17;;;;;;;69.28;17.80;;;7.50;99.90;;;;;;4841989;29;20048;-94
2021/12/29 04:05:43;;;;;;;77.78;20.05;;;7.50;99.90;;;;;;4845595;29;20045;-94
2021/12/29 04:08:09;;;;;;;68.95;18.20;;;7.50;99.90;;;;;;4861296;29;20447;-95
2021/12/29 04:10:36;;;;;;;83.47;19.52;;;7.50;99.90;;;;;;4861445;29;20527;-95
2021/12/29 04:13:02;;;;;;;76.78;18.77;;;7.50;99.90;;;;;;4837491;29;20322;-94
2021/12/29 04:15:29;;;;;;;74.22;19.17;;;7.50;99.90;;;;;;4854069;29;20033;-95
2021/12/29 04:17:58;;;;;;;69.88;19.15;;;7.50;99.90;;;;;;4838816;29;20056;-95
2021/12/29 04:23:11;;;;;;;77.38;19.50;;;7.50;99.90;;;;;;4861103;29;20053;-94
2021/12/29 04:25:38;;;;;;;74.53;20.58;;;7.50;99.90;;;;;;4841060;29;20041;-94
2021/12/29 04:28:13;;;;;;;70.70;19.55;;;7.50;99.90;;;;;;4854140;29;20082;-94
2021/12/29 04:30:38;;;;;;;80.93;21.38;;;7.50;99.90;;;;;;4861129;29;20405;-94
2021/12/29 04:33:04;;;;;;;59.30;17.90;;;7.50;99.90;;;;;;4860847;29;20101;-96
2021/12/29 04:35:30;;;;;;;71.65;19.45;;;7.50;99.90;;;;;;4860866;29;20116;-95
2021/12/29 04:37:56;;;;;;;75.75;19.95;;;7.50;99.90;;;;;;4860572;29;20045;-94
2021/12/29 04:40:22;;;;;;;80.57;20.30;;;7.60;99.90;;;;;;4845564;29;20056;-95
2021/12/29 04:42:48;;;;;;;76.43;18.70;;;7.50;99.90;;;;;;4860602;29;20037;-95
2021/12/29 04:45:14;;;;;;;60.60;18.10;;;7.50;99.90;;;;;;4859822;29;20106;-95
2021/12/29 04:47:42;;;;;;;66.55;18.42;;;7.50;99.90;;;;;;4860831;29;20079;-95
2021/12/29 04:50:18;;;;;;;60.10;17.67;;;7.60;99.90;;;;;;4844984;29;20045;-95
2021/12/29 04:52:45;;;;;;;56.35;17.40;;;7.60;99.90;;;;;;4859458;29;20117;-95
2021/12/29 04:55:11;;;;;;;58.80;17.75;;;7.60;99.90;;;;;;4857368;29;20081;-95
2021/12/29 04:57:36;;;;;;;61.28;17.45;;;7.60;99.90;;;;;;4857686;29;20476;-96
2021/12/29 05:00:05;;;;;;;56.65;17.50;;;7.60;99.90;;;;;;4841706;29;20069;-95
2021/12/29 05:02:30;;;;;;;53.35;17.80;;;7.60;99.90;;;;;;4848724;29;20102;-95
2021/12/29 05:05:00;;;;;;;52.03;17.13;;;7.60;99.90;;;;;;4857261;29;20072;-94
2021/12/29 05:10:10;;;;;;;56.53;16.38;;;7.70;99.90;;;;;;4857423;29;20144;-95
2021/12/29 05:12:36;;;;;;;45.10;17.15;;;7.80;99.90;;;;;;4859086;29;20096;-95
2021/12/29 05:15:02;;;;;;;55.75;17.80;;;7.80;99.90;;;;;;4841487;29;20065;-94
2021/12/29 05:17:28;;;;;;;52.90;17.63;;;7.80;99.90;;;;;;4857273;29;20132;-95
2021/12/29 05:19:53;;;;;;;53.55;17.40;;;7.70;99.90;;;;;;4872204;29;20132;-95
2021/12/29 05:22:19;;;;;;;56.72;18.33;;;7.70;99.90;;;;;;4856639;29;20056;-95
2021/12/29 05:24:44;;;;;;;56.25;18.73;;;7.70;99.90;;;;;;4841340;29;20056;-95
2021/12/29 05:27:10;;;;;;;51.35;18.13;;;7.70;99.90;;;;;;4843453;29;20045;-95
2021/12/29 05:29:35;;;;;;;58.70;19.55;;;7.60;99.90;;;;;;4841768;29;20132;-95
2021/12/29 05:32:01;;;;;;;58.47;18.77;;;7.60;99.90;;;;;;4848589;29;20053;-94
2021/12/29 05:34:27;;;;;;;60.75;18.95;;;7.60;99.90;;;;;;4839235;29;20046;-96
2021/12/29 05:36:52;;;;;;;58.55;19.88;;;7.70;99.90;;;;;;4843682;29;20049;-95
2021/12/29 05:39:18;;;;;;;62.50;20.13;;;7.60;99.90;;;;;;4841151;29;20053;-95
2021/12/29 05:41:44;;;;;;;65.25;19.48;;;7.60;99.90;;;;;;4852577;29;20049;-94
2021/12/29 05:44:09;;;;;;;59.88;19.63;;;7.60;99.90;;;;;;4852366;29;20106;-94
2021/12/29 05:46:35;;;;;;;60.65;19.08;;;7.60;99.90;;;;;;4848928;29;20056;-94
2021/12/29 05:49:01;;;;;;;56.30;18.80;;;7.60;99.90;;;;;;4856656;29;20053;-95
2021/12/29 05:51:26;;;;;;;62.13;21.00;;;7.60;99.90;;;;;;4856150;29;20057;-95
2021/12/29 05:53:52;;;;;;;61.95;19.25;;;7.60;99.90;;;;;;4871576;29;20057;-96
2021/12/29 05:56:17;;;;;;;66.35;19.80;;;7.70;99.90;;;;;;4855834;29;20568;-95
2021/12/29 05:58:43;;;;;;;70.25;20.45;;;7.70;99.90;;;;;;4839139;29;20093;-94
2021/12/29 06:01:09;;;;;;;67.72;20.50;;;7.70;99.90;;;;;;4844511;29;20049;-95
2021/12/29 06:03:36;;;;;;;71.30;20.75;;;7.60;99.90;;;;;;4856188;29;20500;-95
2021/12/29 06:06:02;;;;;;;67.47;21.20;;;7.70;99.90;;;;;;4871065;29;20056;-96
2021/12/29 06:08:28;;;;;;;64.85;20.67;;;7.70;99.90;;;;;;4840461;29;20041;-95
2021/12/29 06:10:53;;;;;;;66.88;20.52;;;7.70;99.90;;;;;;4855329;29;20169;-94
2021/12/29 06:13:19;;;;;;;65.50;20.08;;;7.60;99.90;;;;;;4872258;29;20148;-95
2021/12/29 06:15:45;;;;;;;62.13;20.23;;;7.60;99.90;;;;;;4840788;29;20057;-94
2021/12/29 06:18:10;;;;;;;61.78;19.13;;;7.60;99.90;;;;;;4840892;29;20048;-93
2021/12/29 06:20:38;;;;;;;63.08;19.60;;;7.60;99.90;;;;;;4840451;29;20056;-94
2021/12/29 06:23:06;;;;;;;62.50;18.92;;;7.60;99.90;;;;;;4839953;29;20077;-95
2021/12/29 06:25:32;;;;;;;57.65;17.80;;;7.60;99.90;;;;;;4871275;29;20045;-94
2021/12/29 06:27:58;;;;;;;57.15;17.67;;;7.60;99.90;;;;;;4840554;29;20522;-94
2021/12/29 06:30:23;;;;;;;62.30;18.30;;;7.60;99.90;;;;;;4871678;29;20041;-93
2021/12/29 06:32:49;;;;;;;53.10;18.35;;;7.60;99.90;;;;;;4856002;29;20137;-93
2021/12/29 06:35:14;;;;;;;63.60;19.67;;;7.60;99.90;;;;;;4855933;29;20065;-93
2021/12/29 06:37:41;;;;;;;60.95;18.02;;;7.70;99.90;;;;;;4871552;29;20050;-94
2021/12/29 06:40:07;;;;;;;56.35;17.67;;;7.70;99.90;;;;;;4840316;29;20041;-93
2021/12/29 06:42:33;;;;;;;61.28;17.45;;;7.60;99.90;;;;;;4855797;29;20045;-93
2021/12/29 06:44:59;;;;;;;72.32;17.55;;;7.60;99.90;;;;;;4871665;29;20105;-93
2021/12/29 06:47:26;;;;;;;62.08;17.27;;;7.60;99.90;;;;;;4844373;29;20049;-94
2021/12/29 06:49:51;;;;;;;74.50;18.58;;;7.60;99.90;;;;;;4871193;29;20087;-93
2021/12/29 06:52:17;;;;;;;69.57;18.35;;;7.60;99.90;;;;;;4854311;29;20073;-93
2021/12/29 06:54:44;;;;;;;63.03;17.88;;;7.50;99.90;;;;;;4854964;29;20589;-93
2021/12/29 06:57:10;;;;;;;75.05;18.77;;;7.60;99.90;;;;;;4840330;29;20084;-92
2021/12/29 06:59:35;;;;;;;67.05;17.95;;;7.50;99.90;;;;;;4871204;29;20065;-93
2021/12/29 07:02:01;;;;;;;84.20;21.67;;;7.50;99.90;;;;;;4840464;29;20601;-92
2021/12/29 07:04:27;;;;;;;77.32;18.92;;;7.60;99.90;;;;;;4840372;29;20049;-91
2021/12/29 07:06:53;;;;;;;84.90;18.63;;;7.60;99.90;;;;;;4870878;29;20045;-91
2021/12/29 07:09:20;;;;;;;69.25;17.92;;;7.60;99.90;;;;;;4843151;29;20045;-93
2021/12/29 07:11:46;;;;;;;81.03;19.38;;;7.60;99.90;;;;;;4846761;29;20054;-93
2021/12/29 07:14:12;;;;;;;77.28;18.15;;;7.60;99.90;;;;;;4856569;29;20037;-93
2021/12/29 07:16:39;;;;;;;81.22;19.27;;;7.60;99.90;;;;;;4874430;29;20244;-92
2021/12/29 07:19:06;;;;;;;81.20;18.67;;;7.60;99.90;;;;;;4858821;29;20045;-92
2021/12/29 07:21:31;;;;;;;75.78;19.17;;;7.60;99.90;;;;;;4874511;29;20053;-91
2021/12/29 07:23:57;;;;;;;69.43;18.38;;;7.60;99.90;;;;;;4843294;29;20504;-91
2021/12/29 07:26:23;;;;;;;74.38;17.95;;;7.60;99.90;;;;;;4859076;29;20050;-94
2021/12/29 07:28:50;;;;;;;83.40;19.63;;;7.60;99.90;;;;;;4859252;29;20057;-92
2021/12/29 07:31:17;;;;;;;72.38;17.70;;;7.60;99.90;;;;;;4837038;29;20138;-92
2021/12/29 07:33:42;;;;;;;88.07;19.65;;;7.70;99.90;;;;;;4839506;29;20064;-92
2021/12/29 07:36:08;;;;;;;64.03;17.27;;;7.60;99.90;;;;;;4842448;29;20061;-92
2021/12/29 07:38:33;;;;;;;95.88;18.40;;;7.70;99.90;;;;;;4845202;29;20044;-91
2021/12/29 07:40:59;;;;;;;63.40;17.13;;;7.70;99.90;;;;;;4850902;29;20101;-93
2021/12/29 07:43:25;;;;;;;72.10;18.42;;;7.70;99.90;;;;;;4842533;29;20038;-92
2021/12/29 07:45:53;;;;;;;80.70;17.83;;;7.70;99.90;;;;;;4870611;29;20052;-92
2021/12/29 07:48:25;;;;;;;77.32;19.00;;;7.70;99.90;;;;;;4840523;29;20124;-92
2021/12/29 07:50:50;;;;;;;74.35;19.42;;;7.70;99.90;;;;;;4871407;29;20056;-93
2021/12/29 07:53:16;;;;;;;74.30;18.05;;;7.80;99.90;;;;;;4856085;29;20053;-92
2021/12/29 07:55:41;;;;;;;75.93;18.00;;;7.70;99.90;;;;;;4874992;29;20085;-92
2021/12/29 07:58:07;;;;;;;72.25;18.45;;;7.80;99.90;;;;;;4857280;29;20053;-92
2021/12/29 08:00:33;;;;;;;73.18;17.30;;;7.70;99.90;;;;;;4831290;29;20045;-93
2021/12/29 08:02:58;;;;;;;69.60;17.75;;;7.70;99.90;;;;;;4857626;29;20070;-93
2021/12/29 08:05:24;;;;;;;65.97;17.63;;;7.70;99.90;;;;;;4842933;29;20543;-91
2021/12/29 08:07:50;;;;;;;80.55;17.45;;;7.70;99.90;;;;;;4839035;29;20048;-92
2021/12/29 08:10:15;;;;;;;75.28;22.08;;;7.80;99.90;;;;;;4842616;29;20469;-92
2021/12/29 08:12:41;;;;;;;68.25;20.98;;;7.90;99.90;;;;;;4842732;29;20095;-93
2021/12/29 08:15:07;;;;;;;80.43;20.58;;;7.90;99.90;;;;;;4840858;29;21175;-90
2021/12/29 08:17:33;;;;;;;86.13;23.23;;;7.80;99.90;;;;;;4841076;29;20052;-91
2021/12/29 08:20:04;;;;;;;99.97;26.67;;;7.90;99.90;;;;;;4844230;29;20412;-90
2021/12/29 08:22:29;;;;;;;81.78;22.05;;;7.90;99.90;;;;;;4858019;29;20052;-91
2021/12/29 08:24:55;;;;;;;66.70;19.45;;;7.90;99.90;;;;;;4841767;29;20049;-91
2021/12/29 08:27:21;;;;;;;74.70;21.25;;;7.90;99.90;;;;;;4840630;29;20069;-90
2021/12/29 08:29:47;;;;;;;72.18;20.95;;;7.90;99.90;;;;;;4841009;29;20053;-91
2021/12/29 08:32:12;;;;;;;87.72;23.92;;;7.90;99.90;;;;;;4841284;29;20045;-91
2021/12/29 08:34:38;;;;;;;79.07;20.63;;;7.90;99.90;;;;;;4838177;29;20041;-91
2021/12/29 08:37:04;;;;;;;66.47;18.23;;;7.90;99.90;;;;;;4849236;29;20045;-91
2021/12/29 08:39:29;;;;;;;61.42;17.45;;;7.90;99.90;;;;;;4840896;29;20412;-94
2021/12/29 08:41:55;;;;;;;58.50;17.42;;;8.00;99.90;;;;;;4841902;29;20049;-94
2021/12/29 08:44:21;;;;;;;53.80;16.60;;;8.00;99.90;;;;;;4854544;29;20112;-94
2021/12/29 08:46:47;;;;;;;51.22;15.20;;;8.00;99.90;;;;;;4849640;29;20045;-96
2021/12/29 08:49:14;;;;;;;50.95;14.55;;;8.10;99.90;;;;;;4873810;29;20049;-95
2021/12/29 08:51:40;;;;;;;51.63;14.13;;;8.00;99.90;;;;;;4833427;29;20085;-94
2021/12/29 08:54:06;;;;;;;51.28;14.75;;;8.00;99.90;;;;;;4846803;29;20081;-94
2021/12/29 08:56:32;;;;;;;50.63;14.23;;;8.10;99.90;;;;;;4848405;29;20052;-96
2021/12/29 08:58:58;;;;;;;57.20;14.63;;;8.10;99.90;;;;;;4840152;29;20061;-95
2021/12/29 09:01:25;;;;;;;56.08;14.10;;;8.10;99.90;;;;;;4842753;29;20053;-94
2021/12/29 09:03:51;;;;;;;46.42;13.35;;;8.20;99.90;;;;;;4856437;29;20052;-96
2021/12/29 09:06:18;;;;;;;53.60;14.48;;;8.20;99.90;;;;;;4851389;29;20457;-96
2021/12/29 09:08:44;;;;;;;63.75;13.50;;;8.20;99.90;;;;;;4854389;29;20045;-95
2021/12/29 09:11:11;;;;;;;77.43;14.55;;;8.30;99.90;;;;;;4858127;29;20038;-96
2021/12/29 09:13:36;;;;;;;70.10;14.60;;;8.20;99.90;;;;;;4834963;29;20162;-96
2021/12/29 09:16:03;;;;;;;61.78;14.55;;;8.20;99.90;;;;;;4842373;29;20072;-96
2021/12/29 09:18:31;;;;;;;61.10;14.63;;;8.10;99.90;;;;;;4856831;29;20048;-95
2021/12/29 09:21:05;;;;;;;57.30;14.57;;;8.20;99.90;;;;;;4872410;29;20042;-96
2021/12/29 09:23:31;;;;;;;50.28;14.65;;;8.20;99.90;;;;;;4860528;29;20049;-95
2021/12/29 09:25:57;;;;;;;61.92;15.70;;;8.30;99.90;;;;;;4873300;29;20045;-96
2021/12/29 09:28:24;;;;;;;54.80;14.18;;;8.30;99.90;;;;;;4843018;29;20049;-96
2021/12/29 09:30:50;;;;;;;49.72;13.60;;;8.20;99.90;;;;;;4872996;29;20041;-96
2021/12/29 09:33:17;;;;;;;59.78;14.40;;;8.30;99.90;;;;;;4873679;29;20053;-96
2021/12/29 09:35:45;;;;;;;39.70;12.45;;;8.30;99.90;;;;;;4844233;29;20046;-95
2021/12/29 09:38:10;;;;;;;38.95;12.90;;;8.30;99.90;;;;;;4848266;29;20081;-96
2021/12/29 09:40:37;;;;;;;43.95;11.63;;;8.30;99.90;;;;;;4842125;29;20049;-96
2021/12/29 09:43:06;;;;;;;39.55;11.95;;;8.40;99.90;;;;;;4842131;29;20054;-95
2021/12/29 09:45:32;;;;;;;35.67;10.70;;;8.40;99.90;;;;;;4857112;29;20481;-95
2021/12/29 09:47:58;;;;;;;39.55;10.93;;;8.40;99.90;;;;;;4833182;29;20057;-95
2021/12/29 09:50:25;;;;;;;33.22;10.40;;;8.30;99.90;;;;;;4872045;29;20046;-94
2021/12/29 09:52:51;;;;;;;40.42;10.85;;;8.40;99.90;;;;;;4856781;29;20117;-95
2021/12/29 09:55:19;;;;;;;33.10;10.45;;;8.40;99.90;;;;;;4833813;29;20053;-96
2021/12/29 09:57:47;;;;;;;41.03;10.27;;;8.40;99.90;;;;;;4874073;29;20060;-95
2021/12/29 10:00:30;;;;;;;37.08;10.88;;;8.50;99.90;;;;;;4860555;29;20051;-96
2021/12/29 10:02:58;;;;;;;36.47;11.07;;;8.50;99.90;;;;;;4856155;29;20466;-95
2021/12/29 10:05:27;;;;;;;44.17;11.57;;;8.60;99.90;;;;;;4842019;29;20528;-95
2021/12/29 10:08:12;;;;;;;33.90;10.65;;;8.50;99.90;;;;;;4840845;29;20501;-96
2021/12/29 10:10:40;;;;;;;37.95;12.23;;;8.60;99.90;;;;;;4871820;29;20064;-95
2021/12/29 10:13:08;;;;;;;37.08;12.57;;;8.60;99.90;;;;;;4856627;29;20652;-96
2021/12/29 10:15:46;;;;;;;43.50;13.32;;;8.60;99.90;;;;;;4848952;29;20451;-96
2021/12/29 10:18:18;;;;;;;49.95;14.27;;;8.60;99.90;;;;;;4871752;29;20504;-96
2021/12/29 10:20:49;;;;;;;49.55;16.60;;;8.70;99.90;;;;;;4856451;29;20057;-96
2021/12/29 10:23:31;;;;;;;44.42;14.77;;;8.80;99.90;;;;;;4841530;29;20053;-96
2021/12/29 10:26:05;;;;;;;45.47;16.23;;;8.90;99.90;;;;;;4856920;29;20041;-96
2021/12/29 10:28:32;;;;;;;42.17;14.82;;;8.90;99.90;;;;;;4856697;29;20145;-95
2021/12/29 10:31:02;;;;;;;48.15;14.93;;;8.90;99.90;;;;;;4841486;29;20037;-96
2021/12/29 10:33:33;;;;;;;39.40;14.23;;;8.80;99.90;;;;;;4841421;29;20044;-96
2021/12/29 10:36:29;;;;;;;50.60;15.82;;;8.90;99.90;;;;;;4856495;29;20497;-96
2021/12/29 10:39:05;;;;;;;45.30;14.18;;;8.80;99.90;;;;;;4849550;29;20504;-96
2021/12/29 10:41:42;;;;;;;38.50;12.02;;;8.90;99.90;;;;;;4857609;29;20068;-96
2021/12/29 10:44:07;;;;;;;36.42;13.80;;;8.90;99.90;;;;;;4845441;29;20045;-96
2021/12/29 10:46:33;;;;;;;37.97;13.45;;;8.90;99.90;;;;;;4845366;29;20053;-96
2021/12/29 10:49:02;;;;;;;38.85;13.43;;;8.80;99.90;;;;;;4877267;29;20080;-96
2021/12/29 10:51:42;;;;;;;45.45;13.52;;;8.80;99.90;;;;;;4848187;29;20045;-96
2021/12/29 10:54:10;;;;;;;41.70;12.70;;;8.80;99.90;;;;;;4868991;29;20519;-96
2021/12/29 10:56:37;;;;;;;42.30;13.27;;;8.80;99.90;;;;;;4862295;29;20045;-96
2021/12/29 10:59:25;;;;;;;38.13;12.88;;;8.70;99.90;;;;;;4865795;29;20081;-96
2021/12/29 11:01:52;;;;;;;39.28;13.23;;;8.70;99.90;;;;;;4856773;29;20049;-96
2021/12/29 11:04:20;;;;;;;41.00;12.82;;;8.60;99.90;;;;;;4866071;29;20046;-96
2021/12/29 11:06:47;;;;;;;38.30;12.80;;;8.70;99.90;;;;;;4851913;29;20045;-96
2021/12/29 11:09:53;;;;;;;40.50;12.52;;;8.80;99.90;;;;;;4889362;29;20049;-96
2021/12/29 11:12:20;;;;;;;39.30;13.45;;;8.80;99.90;;;;;;4856688;29;20057;-96
2021/12/29 11:14:52;;;;;;;41.85;13.77;;;8.80;99.90;;;;;;4867419;29;20057;-95
2021/12/29 11:17:24;;;;;;;41.08;13.10;;;9.00;99.90;;;;;;4887293;29;20048;-96
2021/12/29 11:19:58;;;;;;;48.45;14.05;;;9.00;99.90;;;;;;4886213;29;20046;-95
2021/12/29 11:22:43;;;;;;;39.67;13.30;;;9.10;99.90;;;;;;4865445;29;20053;-96
2021/12/29 11:25:12;;;;;;;41.40;12.38;;;9.20;99.90;;;;;;4857721;29;20783;-96
2021/12/29 11:27:38;;;;;;;43.42;12.88;;;9.20;99.90;;;;;;4851298;29;20052;-96
2021/12/29 11:30:45;;;;;;;31.60;12.00;;;9.20;99.90;;;;;;4886529;29;20058;-96
2021/12/29 11:33:23;;;;;;;49.78;12.57;;;9.30;99.90;;;;;;4873025;29;20541;-96
2021/12/29 11:35:53;;;;;;;27.88;10.45;;;9.30;99.90;;;;;;4857689;29;20104;-96
2021/12/29 11:38:37;;;;;;;35.67;11.23;;;9.50;99.90;;;;;;4937820;23;20045;-96
2021/12/29 11:41:03;;;;;;;36.03;11.10;;;9.50;99.90;;;;;;4856766;29;20069;-96
2021/12/29 11:43:30;;;;;;;32.42;10.90;;;9.40;99.90;;;;;;4857024;29;20047;-96
2021/12/29 11:45:57;;;;;;;35.40;10.35;;;9.50;99.90;;;;;;4873261;29;20049;-96
2021/12/29 11:48:24;;;;;;;35.53;9.75;;;9.50;99.90;;;;;;4844495;29;20101;-96
2021/12/29 11:51:01;;;;;;;25.02;9.80;;;9.40;99.90;;;;;;4850639;29;20106;-96
2021/12/29 11:53:31;;;;;;;26.98;9.43;;;9.40;99.90;;;;;;4846006;29;20077;-95
2021/12/29 11:56:08;;;;;;;29.45;10.32;;;9.40;99.90;;;;;;4843258;29;20041;-96
2021/12/29 11:58:41;;;;;;;27.27;10.13;;;9.30;99.90;;;;;;4856421;29;20053;-96
2021/12/29 12:01:16;;;;;;;34.93;10.50;;;9.40;99.90;;;;;;4874360;29;20077;-95
2021/12/29 12:03:50;;;;;;;38.33;11.10;;;9.30;99.90;;;;;;4830823;29;20515;-96
2021/12/29 12:06:29;;;;;;;38.42;10.90;;;9.40;99.90;;;;;;4859747;29;20053;-95
2021/12/29 12:09:11;;;;;;;29.83;11.23;;;9.40;99.90;;;;;;4848193;29;20049;-95
2021/12/29 12:11:42;;;;;;;31.42;11.50;;;9.40;99.90;;;;;;4858497;29;20046;-95
2021/12/29 12:14:26;;;;;;;36.40;11.70;;;9.30;99.90;;;;;;4860787;29;20050;-96
2021/12/29 12:17:21;;;;;;;33.78;11.77;;;9.30;99.90;;;;;;4855017;29;20069;-96
2021/12/29 12:20:00;;;;;;;31.58;11.48;;;9.20;99.90;;;;;;4831215;29;20046;-96
2021/12/29 12:22:28;;;;;;;31.42;11.52;;;9.20;99.90;;;;;;4843500;29;20105;-95
2021/12/29 12:25:03;;;;;;;32.55;11.85;;;9.20;99.90;;;;;;4857693;29;20045;-96
2021/12/29 12:27:41;;;;;;;33.42;12.35;;;9.10;99.90;;;;;;4852468;29;20092;-96
2021/12/29 12:30:11;;;;;;;40.90;12.60;;;9.10;99.90;;;;;;4854226;29;20084;-96
2021/12/29 12:32:42;;;;;;;39.72;12.48;;;8.90;99.90;;;;;;4854166;29;20041;-96
2021/12/29 12:35:09;;;;;;;44.47;13.63;;;8.80;99.90;;;;;;4852004;29;20400;-96
2021/12/29 12:37:40;;;;;;;30.45;12.60;;;8.70;99.90;;;;;;4847852;29;20042;-96
2021/12/29 12:40:20;;;;;;;36.88;13.13;;;8.60;99.90;;;;;;4835759;29;20058;-96
2021/12/29 12:42:56;;;;;;;38.70;14.13;;;8.60;99.90;;;;;;4839124;29;20054;-96
2021/12/29 12:45:23;;;;;;;38.72;13.90;;;8.50;99.90;;;;;;4846410;29;20042;-95
2021/12/29 12:47:48;;;;;;;47.78;15.00;;;8.50;99.90;;;;;;4839801;29;20565;-95
2021/12/29 12:50:26;;;;;;;34.45;13.48;;;8.40;99.90;;;;;;4824869;29;20038;-96
2021/12/29 12:52:55;;;;;;;37.92;13.90;;;8.40;99.90;;;;;;4839269;29;20060;-96